Time;durP1;ratioP1;P1;durP2;ratioP2;P2;SDS_P1;SDS_P2;PMS_P1;PMS_P2;Temp;Humidity;BMP_temperature;BMP_pressure;BME280_temperature;BME280_humidity;BME280_pressure;Samples;Min_cycle;Max_cycle;Signal;HPM_P1;HPM_P2
2022/08/16 00:00:59;;;;;;;13.57;10.50;;;;;;;26.62;62.65;98838.09;4900012;29;20250;-67
2022/08/16 00:03:26;;;;;;;11.67;10.43;;;;;;;26.58;62.95;98837.91;4913271;29;20205;-68
2022/08/16 00:05:53;;;;;;;11.77;10.67;;;;;;;26.60;63.35;98834.88;4918852;29;20685;-66
2022/08/16 00:08:20;;;;;;;12.43;11.23;;;;;;;26.61;63.14;98833.75;4918831;29;20245;-67
2022/08/16 00:10:47;;;;;;;13.40;10.87;;;;;;;26.52;63.83;98832.88;4919121;29;20257;-67
2022/08/16 00:13:13;;;;;;;11.83;10.93;;;;;;;26.49;63.59;98833.50;4918814;29;20285;-67
2022/08/16 00:15:45;;;;;;;11.87;10.87;;;;;;;26.42;64.26;98825.00;4918654;29;20627;-67
2022/08/16 00:18:14;;;;;;;11.63;10.73;;;;;;;26.42;64.44;98827.72;4918947;29;20193;-67
2022/08/16 00:20:43;;;;;;;12.20;11.00;;;;;;;26.45;64.18;98832.56;4918830;29;20608;-67
2022/08/16 00:23:10;;;;;;;11.70;10.80;;;;;;;26.49;64.43;98833.50;4918719;29;20197;-67
2022/08/16 00:25:37;;;;;;;15.27;10.73;;;;;;;26.43;64.76;98837.50;4918461;29;20665;-67
2022/08/16 00:28:04;;;;;;;14.17;11.67;;;;;;;26.32;65.03;98828.81;4918687;29;20198;-68
2022/08/16 00:30:32;;;;;;;13.17;12.27;;;;;;;26.32;65.11;98845.16;4918741;29;20194;-68
2022/08/16 00:33:00;;;;;;;12.60;11.50;;;;;;;26.29;65.99;98844.97;4918654;29;20225;-67
2022/08/16 00:35:31;;;;;;;12.43;11.33;;;;;;;26.20;65.98;98852.28;4918625;29;20201;-67
2022/08/16 00:38:01;;;;;;;11.73;10.80;;;;;;;26.23;66.06;98847.03;4918455;29;20642;-67
2022/08/16 00:40:32;;;;;;;13.03;12.00;;;;;;;26.29;65.73;98855.88;4917717;29;20198;-67
2022/08/16 00:42:59;;;;;;;13.33;12.17;;;;;;;26.28;65.91;98857.78;4918171;29;20256;-67
2022/08/16 00:45:33;;;;;;;16.73;12.10;;;;;;;26.25;66.49;98871.25;4918153;29;20202;-67
2022/08/16 00:48:02;;;;;;;13.83;12.57;;;;;;;26.12;66.78;98862.03;4918603;29;20197;-68
2022/08/16 00:50:33;;;;;;;12.67;11.70;;;;;;;26.00;67.09;98850.13;4918322;29;20201;-67
2022/08/16 00:53:00;;;;;;;13.50;12.30;;;;;;;25.97;67.36;98853.47;4917779;29;20639;-67
2022/08/16 00:55:27;;;;;;;14.07;12.77;;;;;;;25.95;67.61;98851.03;4917946;29;20193;-67
2022/08/16 00:57:57;;;;;;;13.97;12.80;;;;;;;25.90;67.73;98848.44;4917889;29;20314;-67
2022/08/16 01:00:27;;;;;;;12.83;11.73;;;;;;;25.92;67.50;98842.69;4918124;29;20264;-67
2022/08/16 01:02:55;;;;;;;13.23;12.23;;;;;;;25.86;67.63;98847.44;4909203;29;20202;-67
2022/08/16 01:05:21;;;;;;;13.90;12.57;;;;;;;25.87;67.56;98854.47;4898957;29;20254;-66
2022/08/16 01:07:49;;;;;;;13.23;12.23;;;;;;;25.86;67.72;98862.94;4898843;29;20257;-66
2022/08/16 01:10:16;;;;;;;13.57;12.37;;;;;;;25.82;68.80;98864.69;4899207;29;20628;-66
2022/08/16 01:12:43;;;;;;;14.33;12.63;;;;;;;25.77;68.34;98870.25;4898789;29;20294;-67
2022/08/16 01:15:11;;;;;;;14.37;12.93;;;;;;;25.86;68.81;98865.69;4898768;29;20233;-67
2022/08/16 01:17:40;;;;;;;14.50;13.43;;;;;;;25.89;68.49;98854.97;4899011;29;20201;-68
2022/08/16 01:20:09;;;;;;;13.87;12.77;;;;;;;25.98;67.14;98849.63;4898723;29;20666;-68
2022/08/16 01:22:42;;;;;;;13.57;12.37;;;;;;;25.90;68.26;98850.34;4898894;29;20709;-67
2022/08/16 01:25:14;;;;;;;14.40;12.37;;;;;;;25.88;68.24;98849.84;4898798;29;20194;-67
2022/08/16 01:27:45;;;;;;;14.60;13.30;;;;;;;25.85;68.12;98850.47;4898484;29;20254;-67
2022/08/16 01:30:15;;;;;;;14.47;13.17;;;;;;;25.87;67.92;98870.00;4898551;29;20242;-68
2022/08/16 01:32:42;;;;;;;13.17;12.17;;;;;;;25.73;68.29;98863.81;4898404;29;20733;-67
2022/08/16 01:35:14;;;;;;;14.50;13.17;;;;;;;25.74;67.84;98876.31;4898905;29;20289;-68
2022/08/16 01:37:44;;;;;;;14.30;13.13;;;;;;;25.67;68.57;98876.75;4898310;29;20190;-68
2022/08/16 01:40:15;;;;;;;14.53;13.07;;;;;;;25.65;68.04;98878.16;4898538;29;20642;-74
2022/08/16 01:42:44;;;;;;;23.20;12.77;;;;;;;25.61;68.43;98863.56;4898269;29;20238;-73
2022/08/16 01:45:11;;;;;;;15.77;14.10;;;;;;;25.56;68.31;98869.16;4898581;29;20201;-74
2022/08/16 01:47:39;;;;;;;19.97;13.03;;;;;;;25.54;68.65;98868.63;4898834;29;20263;-69
2022/08/16 01:50:08;;;;;;;14.50;13.10;;;;;;;25.48;68.88;98883.47;4897890;29;20205;-73
2022/08/16 01:52:35;;;;;;;18.93;12.87;;;;;;;25.41;68.92;98886.63;4898408;29;20253;-73
2022/08/16 01:55:02;;;;;;;15.40;13.80;;;;;;;25.33;68.89;98881.09;4898704;29;20222;-73
2022/08/16 01:57:30;;;;;;;13.27;12.17;;;;;;;25.19;69.19;98891.19;4898191;29;20198;-72
2022/08/16 01:59:57;;;;;;;12.97;11.87;;;;;;;25.08;69.83;98880.50;4897984;29;20632;-73
2022/08/16 02:02:24;;;;;;;23.33;13.97;;;;;;;25.02;70.47;98873.59;4902994;29;20205;-72
2022/08/16 02:04:51;;;;;;;15.00;13.60;;;;;;;25.02;70.81;98881.75;4916935;29;20644;-73
2022/08/16 02:07:18;;;;;;;15.30;13.87;;;;;;;25.08;70.33;98878.91;4916927;29;20334;-73
2022/08/16 02:09:46;;;;;;;14.33;13.13;;;;;;;25.02;70.20;98876.31;4916676;29;20744;-73
2022/08/16 02:12:14;;;;;;;14.77;13.27;;;;;;;24.90;71.21;98889.59;4916811;29;20260;-71
2022/08/16 02:14:43;;;;;;;21.80;14.50;;;;;;;24.91;70.44;98891.22;4917559;29;20316;-73
2022/08/16 02:17:12;;;;;;;15.17;13.57;;;;;;;24.82;70.88;98889.50;4916799;29;20259;-73
2022/08/16 02:19:42;;;;;;;15.03;13.47;;;;;;;24.77;71.59;98901.28;4916390;29;20252;-73
2022/08/16 02:22:12;;;;;;;19.47;13.53;;;;;;;24.87;70.82;98894.84;4916470;29;20558;-74
2022/08/16 02:24:41;;;;;;;16.40;13.83;;;;;;;24.84;71.28;98900.88;4916392;29;20230;-74
2022/08/16 02:27:07;;;;;;;14.17;13.03;;;;;;;24.73;71.29;98897.56;4916743;29;20279;-74
2022/08/16 02:29:34;;;;;;;14.77;13.33;;;;;;;24.69;71.58;98902.00;4916132;29;20636;-73
2022/08/16 02:32:03;;;;;;;15.00;13.57;;;;;;;24.63;72.36;98895.03;4916547;29;20255;-73
2022/08/16 02:34:30;;;;;;;16.27;14.50;;;;;;;24.59;72.41;98894.00;4916666;29;20228;-74
2022/08/16 02:36:57;;;;;;;14.30;13.00;;;;;;;24.56;72.39;98886.47;4916532;29;20200;-73
2022/08/16 02:39:24;;;;;;;15.57;14.20;;;;;;;24.56;72.20;98881.03;4916381;29;20266;-73
2022/08/16 02:41:53;;;;;;;16.97;12.67;;;;;;;24.52;72.28;98882.75;4916184;29;20208;-73
2022/08/16 02:44:20;;;;;;;15.23;13.63;;;;;;;24.56;72.86;98883.75;4916287;29;20244;-73
2022/08/16 02:46:47;;;;;;;14.73;13.53;;;;;;;24.65;72.20;98895.56;4916079;29;20216;-74
2022/08/16 02:49:15;;;;;;;14.20;12.80;;;;;;;24.72;71.51;98889.72;4916004;29;20276;-75
2022/08/16 02:51:43;;;;;;;16.63;12.87;;;;;;;24.79;71.39;98892.84;4915883;29;20197;-75
2022/08/16 02:54:12;;;;;;;13.77;12.33;;;;;;;24.87;71.18;98889.41;4916315;29;20315;-75
2022/08/16 02:56:39;;;;;;;17.17;12.93;;;;;;;24.87;69.81;98889.41;4915846;29;20208;-75
2022/08/16 02:59:06;;;;;;;17.20;13.53;;;;;;;24.80;71.05;98878.94;4915794;29;20212;-74
2022/08/16 03:01:34;;;;;;;13.67;12.47;;;;;;;24.83;70.09;98889.19;4915532;29;20201;-74
2022/08/16 03:04:02;;;;;;;13.20;12.00;;;;;;;24.86;70.73;98893.22;4898254;29;20732;-75
2022/08/16 03:06:31;;;;;;;13.27;12.17;;;;;;;24.84;70.69;98890.81;4897264;29;20205;-74
2022/08/16 03:08:57;;;;;;;13.87;12.70;;;;;;;24.91;69.43;98896.66;4897518;29;20297;-74
2022/08/16 03:11:24;;;;;;;14.17;12.93;;;;;;;24.83;69.73;98897.34;4898061;29;20253;-75
2022/08/16 03:13:54;;;;;;;17.77;15.90;;;;;;;24.73;70.48;98903.00;4896724;29;20735;-74
2022/08/16 03:16:22;;;;;;;15.27;13.77;;;;;;;24.67;70.81;98901.47;4897201;29;20815;-74
2022/08/16 03:18:49;;;;;;;14.00;12.70;;;;;;;24.66;71.04;98908.03;4897645;29;20270;-74
2022/08/16 03:21:16;;;;;;;13.83;12.50;;;;;;;24.69;70.06;98910.16;4897103;29;20700;-74
2022/08/16 03:23:44;;;;;;;15.23;12.53;;;;;;;24.71;70.52;98913.34;4897661;29;20201;-73
2022/08/16 03:26:12;;;;;;;13.50;12.00;;;;;;;24.78;70.18;98924.63;4897070;29;20201;-72
2022/08/16 03:28:39;;;;;;;14.27;13.07;;;;;;;24.82;70.07;98922.09;4897626;29;20235;-74
2022/08/16 03:31:07;;;;;;;13.67;12.47;;;;;;;24.85;69.90;98930.47;4896266;29;20257;-73
2022/08/16 03:33:34;;;;;;;12.97;12.00;;;;;;;24.88;69.87;98927.13;4896890;29;20288;-74
2022/08/16 03:36:01;;;;;;;15.43;13.87;;;;;;;24.91;68.93;98929.25;4897296;29;20202;-74
2022/08/16 03:38:29;;;;;;;14.60;13.17;;;;;;;24.85;68.94;98925.03;4897867;29;20205;-74
2022/08/16 03:40:58;;;;;;;13.87;12.57;;;;;;;24.92;69.42;98939.00;4897237;29;20260;-74
2022/08/16 03:43:26;;;;;;;15.07;13.07;;;;;;;24.96;68.92;98940.00;4897120;29;20237;-74
2022/08/16 03:45:56;;;;;;;19.97;15.13;;;;;;;24.92;69.28;98941.72;4897016;29;20218;-74
2022/08/16 03:48:25;;;;;;;22.13;13.40;;;;;;;24.88;69.55;98940.72;4897673;29;20295;-73
2022/08/16 03:50:52;;;;;;;16.13;12.63;;;;;;;24.84;69.77;98934.28;4896898;29;20202;-76
2022/08/16 03:53:19;;;;;;;18.87;13.70;;;;;;;24.95;70.59;98940.34;4896785;29;20272;-74
2022/08/16 03:55:45;;;;;;;13.73;12.00;;;;;;;25.16;69.66;98946.16;4896391;29;20226;-73
2022/08/16 03:58:14;;;;;;;13.97;12.47;;;;;;;25.43;68.97;98943.44;4896651;29;20613;-74
2022/08/16 04:00:41;;;;;;;20.77;13.60;;;;;;;25.69;68.11;98955.34;4896689;29;20264;-73
2022/08/16 04:03:07;;;;;;;23.83;13.33;;;;;;;25.99;67.12;98946.47;4907253;29;20224;-73
2022/08/16 04:05:35;;;;;;;15.10;12.57;;;;;;;26.25;66.31;98947.47;4915564;29;20205;-73
2022/08/16 04:08:03;;;;;;;20.07;13.73;;;;;;;26.50;64.87;98938.66;4915571;29;20292;-73
2022/08/16 04:10:30;;;;;;;26.27;12.77;;;;;;;26.79;63.93;98945.22;4916029;29;20696;-72
2022/08/16 04:12:58;;;;;;;26.63;15.57;;;;;;;27.14;62.73;98948.88;4909540;29;20193;-70
2022/08/16 04:15:29;;;;;;;22.70;14.10;;;;;;;27.52;61.23;98942.56;4905167;29;20278;-71
2022/08/16 04:17:56;;;;;;;29.47;13.03;;;;;;;27.94;58.97;98957.38;4900093;29;20289;-71
2022/08/16 04:20:24;;;;;;;16.80;12.70;;;;;;;28.24;57.96;98961.84;4899708;29;20285;-71
2022/08/16 04:22:52;;;;;;;16.03;11.77;;;;;;;28.54;56.43;98967.09;4900086;29;20230;-72
2022/08/16 04:25:19;;;;;;;17.33;11.80;;;;;;;28.97;55.59;98964.22;4899584;29;20254;-71
2022/08/16 04:27:46;;;;;;;20.63;13.10;;;;;;;29.25;54.67;98959.94;4899509;29;20670;-72
2022/08/16 04:30:15;;;;;;;14.53;13.17;;;;;;;29.44;52.72;98957.56;4899575;29;20262;-71
2022/08/16 04:32:44;;;;;;;14.43;13.03;;;;;;;29.73;52.39;98948.53;4899846;29;20267;-72
2022/08/16 04:35:15;;;;;;;15.77;12.90;;;;;;;30.01;51.18;98961.31;4899330;29;20773;-71
2022/08/16 04:37:42;;;;;;;26.20;14.20;;;;;;;30.30;50.84;98964.00;4899506;29;20793;-71
2022/08/16 04:40:10;;;;;;;21.40;12.97;;;;;;;30.61;49.38;98967.03;4900020;29;20262;-71
2022/08/16 04:42:39;;;;;;;17.00;12.50;;;;;;;30.76;48.67;98982.88;4899576;29;20237;-70
2022/08/16 04:45:07;;;;;;;13.53;12.13;;;;;;;30.84;48.53;98990.22;4899132;29;20262;-71
2022/08/16 04:47:34;;;;;;;18.43;12.17;;;;;;;31.09;47.45;98991.84;4899126;29;20734;-70
2022/08/16 04:50:04;;;;;;;14.03;11.67;;;;;;;31.15;47.50;98984.97;4899431;29;20648;-70
2022/08/16 04:52:31;;;;;;;14.53;9.93;;;;;;;31.64;46.64;98981.06;4900526;29;20198;-66
2022/08/16 04:54:57;;;;;;;10.63;9.70;;;;;;;31.89;44.69;98981.84;4899264;29;20290;-65
2022/08/16 04:57:24;;;;;;;12.80;11.07;;;;;;;32.01;43.98;98985.34;4899008;29;20257;-64
2022/08/16 04:59:51;;;;;;;12.30;11.13;;;;;;;32.19;43.07;98975.66;4899160;29;20235;-64
2022/08/16 05:02:17;;;;;;;11.43;10.67;;;;;;;32.23;43.61;98968.31;4903541;29;20197;-65
2022/08/16 05:04:44;;;;;;;11.27;10.17;;;;;;;32.24;43.60;98969.91;4918010;29;20261;-64
2022/08/16 05:07:12;;;;;;;16.80;11.30;;;;;;;32.41;42.74;98966.06;4918042;29;20201;-65
2022/08/16 05:09:39;;;;;;;13.43;11.00;;;;;;;32.63;42.41;98969.03;4918127;29;20557;-65
2022/08/16 05:12:06;;;;;;;11.87;10.67;;;;;;;32.77;41.77;98974.13;4917627;29;20740;-65
2022/08/16 05:14:33;;;;;;;13.73;10.50;;;;;;;32.95;41.45;98975.41;4917442;29;20592;-65
2022/08/16 05:16:59;;;;;;;12.30;10.77;;;;;;;33.10;40.75;98978.16;4918527;29;20208;-64
2022/08/16 05:19:26;;;;;;;28.30;11.03;;;;;;;33.08;40.93;98985.94;4917716;29;20197;-65
2022/08/16 05:21:54;;;;;;;11.27;10.17;;;;;;;33.16;40.78;98987.72;4917416;29;20612;-65
2022/08/16 05:24:22;;;;;;;11.90;9.87;;;;;;;33.29;40.82;98981.00;4918351;29;20201;-65
2022/08/16 05:26:49;;;;;;;14.47;10.10;;;;;;;33.50;39.75;98979.88;4917335;29;20264;-66
2022/08/16 05:29:15;;;;;;;11.47;9.33;;;;;;;33.54;40.11;98980.75;4917547;29;20637;-64
2022/08/16 05:31:42;;;;;;;18.30;10.00;;;;;;;33.71;40.29;98963.84;4917713;29;20201;-63
2022/08/16 05:34:09;;;;;;;15.32;10.02;;;;;;;33.84;39.61;98976.38;4904919;29;20209;-64
2022/08/16 05:36:36;;;;;;;14.00;9.17;;;;;;;34.06;39.29;98970.94;4898405;29;20225;-64
2022/08/16 05:39:03;;;;;;;11.27;10.18;;;;;;;34.27;38.48;98970.56;4898134;29;20647;-64
2022/08/16 05:41:31;;;;;;;10.27;9.35;;;;;;;34.48;38.00;98960.75;4898293;29;20213;-64
2022/08/16 05:43:59;;;;;;;11.68;9.55;;;;;;;34.69;37.08;98968.63;4898463;29;20266;-65
2022/08/16 05:46:26;;;;;;;9.07;8.43;;;;;;;34.82;37.23;98970.09;4898097;29;20692;-65
2022/08/16 05:48:52;;;;;;;11.10;9.18;;;;;;;34.88;37.02;98969.41;4898300;29;20202;-65
2022/08/16 05:51:19;;;;;;;9.98;9.07;;;;;;;34.91;36.56;98979.69;4902280;29;20201;-65
2022/08/16 05:53:46;;;;;;;9.85;9.25;;;;;;;35.14;36.64;98985.19;4906393;29;20306;-64
2022/08/16 05:56:13;;;;;;;15.07;9.23;;;;;;;35.11;35.98;98988.72;4903440;29;20236;-64
2022/08/16 05:58:41;;;;;;;10.15;9.30;;;;;;;35.01;36.28;98989.31;4908572;29;20581;-64
2022/08/16 06:01:08;;;;;;;15.02;9.73;;;;;;;35.40;35.78;98985.28;4907779;29;20233;-65
2022/08/16 06:03:36;;;;;;;10.13;9.23;;;;;;;35.53;35.65;98967.31;4907769;29;20193;-66
2022/08/16 06:06:03;;;;;;;15.15;9.85;;;;;;;35.47;35.76;98964.06;4907488;29;20209;-66
2022/08/16 06:08:30;;;;;;;9.68;8.70;;;;;;;35.50;35.74;98962.50;4904411;29;20575;-66
2022/08/16 06:10:57;;;;;;;9.68;8.88;;;;;;;35.51;34.81;98964.09;4916439;29;20197;-67
2022/08/16 06:13:23;;;;;;;10.43;9.35;;;;;;;35.46;35.39;98964.44;4916313;29;20636;-68
2022/08/16 06:15:53;;;;;;;10.15;9.32;;;;;;;35.43;35.22;98962.44;4916624;29;20288;-66
2022/08/16 06:18:19;;;;;;;9.63;8.93;;;;;;;35.33;34.86;98958.34;4915840;29;20203;-66
2022/08/16 06:23:22;;;;;;;9.65;8.73;;;;;;;35.07;34.94;98960.25;5024328;23;20230;-72
2022/08/16 06:25:49;;;;;;;9.63;8.93;;;;;;;35.01;35.05;98970.00;4884436;29;20217;-72
2022/08/16 06:28:16;;;;;;;8.20;7.68;;;;;;;34.57;35.35;98968.81;4893374;29;20194;-70
2022/08/16 06:30:42;;;;;;;9.48;8.80;;;;;;;34.51;34.85;98970.25;4895304;29;20632;-70
2022/08/16 06:33:11;;;;;;;9.07;8.50;;;;;;;34.37;34.79;98958.97;4878526;29;20253;-70
2022/08/16 06:35:38;;;;;;;10.00;9.10;;;;;;;34.51;34.94;98954.53;4878807;29;20278;-70
2022/08/16 06:38:04;;;;;;;9.98;9.20;;;;;;;34.29;34.94;98951.69;4877977;29;20670;-70
2022/08/16 06:40:31;;;;;;;8.85;8.35;;;;;;;34.22;36.28;98938.56;4890062;29;20222;-70
2022/08/16 06:42:58;;;;;;;12.85;8.18;;;;;;;34.35;35.42;98940.03;4897066;29;20257;-70
2022/08/16 06:45:25;;;;;;;9.95;9.18;;;;;;;34.27;35.67;98937.44;4897461;29;20262;-70
2022/08/16 06:47:52;;;;;;;9.48;8.70;;;;;;;34.44;35.42;98934.25;4897087;29;20194;-71
2022/08/16 06:50:20;;;;;;;9.93;9.20;;;;;;;34.44;35.74;98932.31;4897305;29;20194;-71
2022/08/16 06:52:47;;;;;;;11.35;9.07;;;;;;;34.56;35.53;98923.06;4897297;29;20198;-72
2022/08/16 06:55:15;;;;;;;10.32;9.43;;;;;;;34.73;34.75;98930.84;4896869;29;20717;-70
2022/08/16 06:57:42;;;;;;;12.63;9.27;;;;;;;34.65;35.21;98938.19;4885052;29;20258;-72
2022/08/16 07:00:12;;;;;;;12.75;9.02;;;;;;;34.70;34.83;98937.13;4879362;29;20203;-71
2022/08/16 07:02:39;;;;;;;9.32;8.35;;;;;;;34.69;34.93;98938.25;4885654;29;20198;-72
2022/08/16 07:05:08;;;;;;;8.95;8.55;;;;;;;34.78;34.89;98936.06;4896625;29;20202;-73
2022/08/16 07:07:36;;;;;;;11.40;9.88;;;;;;;34.65;34.64;98927.16;4877697;29;20214;-72
2022/08/16 07:10:05;;;;;;;15.25;9.23;;;;;;;34.70;34.93;98935.13;4878227;29;20202;-72
2022/08/16 07:12:31;;;;;;;9.48;8.70;;;;;;;34.78;34.89;98930.56;4878261;29;20199;-72
2022/08/16 07:14:59;;;;;;;8.57;8.13;;;;;;;34.87;34.32;98933.88;4879159;29;20342;-73
2022/08/16 07:17:26;;;;;;;9.70;8.80;;;;;;;35.02;34.18;98930.19;4879068;29;20199;-71
2022/08/16 07:19:53;;;;;;;8.80;8.30;;;;;;;35.21;32.95;98917.06;4871633;29;20203;-72
2022/08/16 07:22:20;;;;;;;9.38;8.55;;;;;;;35.27;33.47;98925.84;4878512;29;20254;-72
2022/08/16 07:24:49;;;;;;;34.75;11.70;;;;;;;35.38;32.58;98921.28;4896378;29;20670;-74
2022/08/16 07:27:16;;;;;;;9.65;8.90;;;;;;;35.47;33.31;98914.31;4895101;29;20209;-79
2022/08/16 07:29:42;;;;;;;9.80;9.07;;;;;;;35.79;32.45;98915.56;4895292;29;20628;-74
2022/08/16 07:32:10;;;;;;;9.65;9.00;;;;;;;35.93;32.40;98923.25;4896956;29;20205;-79
2022/08/16 07:34:36;;;;;;;15.90;9.57;;;;;;;36.08;31.38;98924.97;4894012;29;20202;-76
2022/08/16 07:37:06;;;;;;;9.57;8.10;;;;;;;36.01;32.11;98919.41;4903979;29;20221;-79
2022/08/16 07:39:34;;;;;;;9.35;8.63;;;;;;;36.15;31.44;98927.84;4882453;29;20254;-82
2022/08/16 07:42:02;;;;;;;9.30;8.57;;;;;;;36.18;31.72;98932.63;4898919;29;20253;-83
2022/08/16 07:44:28;;;;;;;9.38;8.88;;;;;;;36.14;31.55;98931.78;4896645;29;20202;-77
2022/08/16 07:46:56;;;;;;;9.00;8.32;;;;;;;36.04;31.21;98930.50;4895474;29;20202;-77
2022/08/16 07:49:23;;;;;;;9.77;9.13;;;;;;;35.90;31.15;98935.06;4895668;29;20256;-88
2022/08/16 07:51:49;;;;;;;10.10;9.10;;;;;;;35.87;31.71;98930.25;4898914;29;20228;-77
2022/08/16 07:54:18;;;;;;;9.63;8.70;;;;;;;35.90;32.03;98926.75;4900066;29;20259;-78
2022/08/16 07:56:45;;;;;;;9.30;8.70;;;;;;;35.80;31.60;98928.22;4899621;29;20598;-82
2022/08/16 07:59:13;;;;;;;9.80;9.20;;;;;;;35.97;31.53;98929.63;4904482;29;20189;-78
2022/08/16 08:01:39;;;;;;;9.38;8.63;;;;;;;36.13;31.34;98930.22;4900443;29;20198;-82
2022/08/16 08:04:09;;;;;;;9.82;9.23;;;;;;;36.11;31.79;98929.78;4908290;29;20214;-86
2022/08/16 08:06:36;;;;;;;9.98;9.18;;;;;;;36.03;31.09;98925.34;4899450;29;20205;-83
2022/08/16 08:09:04;;;;;;;9.35;8.82;;;;;;;36.08;31.95;98924.97;4898458;29;20206;-82
2022/08/16 08:11:31;;;;;;;9.55;8.77;;;;;;;36.07;31.34;98928.94;4900561;29;20198;-84
2022/08/16 08:14:00;;;;;;;9.85;8.93;;;;;;;36.12;31.89;98928.59;4899738;29;20546;-84
2022/08/16 08:16:29;;;;;;;10.23;9.27;;;;;;;36.30;31.36;98935.16;4899303;29;20294;-85
2022/08/16 08:18:56;;;;;;;9.27;8.70;;;;;;;36.39;30.62;98930.91;4899570;29;20202;-85
2022/08/16 08:21:24;;;;;;;9.38;8.63;;;;;;;36.53;30.21;98933.00;4899713;29;20657;-90
2022/08/16 08:23:52;;;;;;;9.82;8.90;;;;;;;36.59;30.52;98925.97;4899863;29;20236;-87
2022/08/16 08:26:19;;;;;;;8.93;8.32;;;;;;;36.51;30.46;98918.78;4899037;29;20737;-90
2022/08/16 08:28:46;;;;;;;13.38;8.90;;;;;;;36.57;30.23;98928.31;4899215;29;20259;-89
2022/08/16 08:31:14;;;;;;;12.20;8.82;;;;;;;36.45;30.74;98920.28;4907043;29;20201;-87
2022/08/16 08:33:42;;;;;;;8.55;7.85;;;;;;;36.36;29.95;98922.56;4918615;29;20197;-79
2022/08/16 08:36:14;;;;;;;9.05;8.45;;;;;;;36.50;29.88;98925.50;4918410;29;20229;-81
2022/08/16 08:38:42;;;;;;;8.77;8.25;;;;;;;36.54;30.65;98901.41;4918748;29;20276;-82
2022/08/16 08:41:09;;;;;;;9.40;8.65;;;;;;;36.64;30.03;98906.22;4915135;29;20662;-78
2022/08/16 08:43:36;;;;;;;9.07;8.32;;;;;;;36.62;30.41;98901.06;4899116;29;20635;-85
2022/08/16 08:46:03;;;;;;;7.53;7.00;;;;;;;36.62;29.36;98914.91;4899470;29;20206;-84
2022/08/16 08:48:30;;;;;;;7.57;6.95;;;;;;;36.20;28.96;98897.06;4899311;29;20666;-80
2022/08/16 08:50:58;;;;;;;7.70;7.10;;;;;;;36.37;29.25;98902.81;4896846;29;20210;-80
2022/08/16 08:53:25;;;;;;;7.05;6.40;;;;;;;36.39;29.98;98910.75;4898931;29;20301;-83
2022/08/16 08:55:52;;;;;;;6.10;5.80;;;;;;;36.36;29.73;98900.44;4898980;29;20236;-83
2022/08/16 08:58:19;;;;;;;6.50;5.90;;;;;;;36.15;28.72;98902.94;4898738;29;20263;-87
2022/08/16 09:00:46;;;;;;;7.80;7.20;;;;;;;36.30;29.35;98905.50;4915926;29;20260;-86
2022/08/16 09:03:13;;;;;;;7.10;6.70;;;;;;;36.25;29.24;98905.06;4918102;29;20201;-81
2022/08/16 09:05:41;;;;;;;6.97;6.57;;;;;;;36.25;30.11;98900.31;4917599;29;20243;-86
2022/08/16 09:08:09;;;;;;;6.88;6.30;;;;;;;36.06;29.39;98896.94;4917613;29;20292;-68
2022/08/16 09:10:35;;;;;;;6.60;6.20;;;;;;;36.17;30.20;98901.38;4917762;29;20255;-69
2022/08/16 09:13:04;;;;;;;9.95;6.97;;;;;;;36.37;29.77;98902.00;4917921;29;20198;-69
2022/08/16 09:15:32;;;;;;;6.93;5.82;;;;;;;36.20;29.30;98899.84;4912101;29;20198;-68
2022/08/16 09:17:59;;;;;;;7.40;5.55;;;;;;;35.76;30.44;98904.47;4898214;29;20206;-69
2022/08/16 09:20:29;;;;;;;6.07;5.68;;;;;;;35.99;30.06;98896.84;4898535;29;20258;-68
2022/08/16 09:22:57;;;;;;;6.72;6.13;;;;;;;36.11;30.22;98905.69;4898687;29;20633;-69
2022/08/16 09:25:26;;;;;;;6.88;6.28;;;;;;;36.25;30.49;98910.63;4898430;29;20198;-66
2022/08/16 09:27:52;;;;;;;7.22;6.28;;;;;;;35.92;29.33;98902.28;4898464;29;20205;-69
2022/08/16 09:30:19;;;;;;;13.00;6.32;;;;;;;35.92;29.62;98894.78;4898743;29;20618;-69
2022/08/16 09:32:47;;;;;;;5.90;5.50;;;;;;;36.07;29.85;98895.75;4917553;29;20194;-67
2022/08/16 09:35:13;;;;;;;6.95;6.00;;;;;;;36.36;29.98;98886.59;4917414;29;20288;-66
2022/08/16 09:37:41;;;;;;;7.63;5.20;;;;;;;36.11;28.87;98889.09;4917229;29;20280;-66
2022/08/16 09:40:09;;;;;;;5.50;5.10;;;;;;;36.10;29.76;98886.69;4917309;29;20201;-66
2022/08/16 09:42:37;;;;;;;6.40;5.05;;;;;;;36.06;29.01;98892.19;4917791;29;20198;-66
2022/08/16 09:45:07;;;;;;;5.63;5.15;;;;;;;35.69;28.89;98882.22;4916982;29;20201;-67
2022/08/16 09:47:38;;;;;;;5.50;5.20;;;;;;;35.84;28.96;98882.06;4917244;29;20209;-66
2022/08/16 09:50:07;;;;;;;7.57;4.95;;;;;;;35.98;29.32;98876.69;4914586;29;20276;-67
2022/08/16 09:52:36;;;;;;;5.00;4.70;;;;;;;36.21;28.91;98880.09;4908319;29;20223;-67
2022/08/16 09:55:04;;;;;;;5.13;4.68;;;;;;;36.68;28.49;98876.63;4898152;29;20633;-67
2022/08/16 09:57:31;;;;;;;4.38;4.18;;;;;;;36.81;28.25;98881.50;4897631;29;20262;-67
2022/08/16 10:00:00;;;;;;;4.45;4.18;;;;;;;36.81;26.74;98886.22;4909448;29;20201;-66
2022/08/16 10:02:27;;;;;;;5.15;4.80;;;;;;;37.01;26.38;98873.72;4916331;29;20189;-71
2022/08/16 10:04:55;;;;;;;4.47;4.10;;;;;;;36.72;26.77;98830.41;4898721;29;20210;-70
2022/08/16 10:07:22;;;;;;;4.50;4.10;;;;;;;36.98;25.71;98860.63;4898025;29;20206;-67
2022/08/16 10:09:51;;;;;;;7.47;4.47;;;;;;;37.17;25.68;98858.44;4897398;29;20591;-69
2022/08/16 10:15:03;;;;;;;5.43;4.30;;;;;;;36.83;27.38;98850.66;4897521;29;20269;-70
2022/08/16 10:17:31;;;;;;;4.57;4.35;;;;;;;36.81;26.82;98853.00;4896738;29;20226;-69
2022/08/16 10:19:57;;;;;;;7.43;4.50;;;;;;;36.60;27.21;98855.56;4897715;29;20198;-67
2022/08/16 10:22:24;;;;;;;5.63;5.10;;;;;;;36.89;27.28;98854.66;4897027;29;20254;-69
2022/08/16 10:24:51;;;;;;;4.60;4.40;;;;;;;37.14;26.40;98850.91;4896455;29;20255;-70
2022/08/16 10:27:19;;;;;;;4.95;4.60;;;;;;;37.14;26.52;98847.31;4895844;29;20210;-68
2022/08/16 10:29:46;;;;;;;4.65;4.35;;;;;;;37.21;26.69;98836.28;4896562;29;20290;-68
2022/08/16 10:32:14;;;;;;;5.10;4.70;;;;;;;37.38;26.31;98846.66;4911011;29;20198;-69
2022/08/16 10:34:41;;;;;;;5.22;4.60;;;;;;;37.43;26.52;98849.06;4914865;29;20200;-66
2022/08/16 10:37:08;;;;;;;5.15;4.85;;;;;;;37.36;25.97;98837.97;4908576;29;20725;-72
2022/08/16 10:39:34;;;;;;;5.88;4.68;;;;;;;37.16;26.63;98850.50;4894796;29;20768;-71
2022/08/16 10:42:01;;;;;;;4.28;4.07;;;;;;;36.69;26.79;98842.22;4894572;29;20261;-68
2022/08/16 10:44:28;;;;;;;5.00;4.53;;;;;;;37.06;27.20;98840.13;4893357;29;20889;-72
2022/08/16 10:46:55;;;;;;;4.85;4.45;;;;;;;37.44;26.00;98844.31;4888705;29;20213;-74
2022/08/16 10:49:23;;;;;;;6.20;4.30;;;;;;;37.47;26.98;98838.00;4904692;29;20281;-75
2022/08/16 10:51:50;;;;;;;4.95;4.65;;;;;;;37.11;27.04;98814.84;4907597;29;20249;-74
2022/08/16 10:54:16;;;;;;;4.35;4.15;;;;;;;37.29;27.02;98835.16;4888693;29;20210;-76
2022/08/16 10:56:43;;;;;;;4.93;4.43;;;;;;;37.29;26.83;98835.16;4891559;29;20780;-75
2022/08/16 10:59:10;;;;;;;4.78;4.38;;;;;;;37.17;26.42;98832.69;4891614;29;20741;-74
2022/08/16 11:01:37;;;;;;;4.50;4.30;;;;;;;37.11;27.29;98832.25;4892406;29;20269;-73
2022/08/16 11:04:05;;;;;;;5.95;4.25;;;;;;;37.05;26.89;98838.53;4891263;29;20259;-74
2022/08/16 11:06:34;;;;;;;16.52;4.22;;;;;;;37.14;27.03;98839.00;4893247;29;20205;-77
2022/08/16 11:09:01;;;;;;;4.28;4.07;;;;;;;37.29;26.71;98826.84;4892922;29;20273;-77
2022/08/16 11:11:28;;;;;;;5.90;4.03;;;;;;;37.17;26.68;98832.69;4895469;29;20301;-71
2022/08/16 11:13:54;;;;;;;4.55;4.35;;;;;;;37.16;26.81;98834.66;4893303;29;20242;-72
2022/08/16 11:16:21;;;;;;;4.60;4.22;;;;;;;37.14;26.74;98834.28;4895540;29;20658;-73
2022/08/16 11:18:48;;;;;;;4.97;4.57;;;;;;;37.19;26.16;98833.09;4895420;29;20194;-75
2022/08/16 11:21:16;;;;;;;5.93;4.13;;;;;;;37.02;26.95;98831.00;4892095;29;20534;-75
2022/08/16 11:23:44;;;;;;;4.38;4.07;;;;;;;37.14;26.84;98830.69;4895990;29;20657;-73
2022/08/16 11:26:11;;;;;;;5.35;4.30;;;;;;;37.31;26.72;98824.44;4898525;29;20289;-72
2022/08/16 11:28:38;;;;;;;8.68;4.72;;;;;;;37.53;25.84;98820.59;4898801;29;20202;-76
2022/08/16 11:31:05;;;;;;;4.30;4.00;;;;;;;37.38;26.52;98830.03;4905617;29;20204;-77